createdAt,value
2019-02-28T00:02:07.945Z,75.42
2019-02-28T00:04:35.856Z,75.54
2019-02-28T00:07:03.748Z,75.29
2019-02-28T00:09:32.565Z,76.60
2019-02-28T00:12:02.383Z,77.03
2019-02-28T00:14:31.325Z,76.56
2019-02-28T00:16:59.208Z,75.50
2019-02-28T00:19:27.100Z,75.17
2019-02-28T00:21:55.015Z,75.76
2019-02-28T00:24:22.901Z,75.43
2019-02-28T00:26:50.796Z,74.01
2019-02-28T00:29:19.652Z,73.16
2019-02-28T00:31:49.914Z,72.10
2019-02-28T00:34:15.455Z,71.70
2019-02-28T00:36:45.340Z,71.23
2019-02-28T00:39:13.240Z,71.44
2019-02-28T00:41:44.312Z,70.91
2019-02-28T00:44:09.031Z,70.68
2019-02-28T00:46:37.961Z,70.45
2019-02-28T00:49:05.858Z,69.88
2019-02-28T00:51:33.799Z,69.67
2019-02-28T00:54:01.684Z,69.25
2019-02-28T00:56:29.598Z,68.59
2019-02-28T00:59:02.555Z,68.03
2019-02-28T01:01:32.429Z,68.26
2019-02-28T01:04:07.718Z,68.19
2019-02-28T01:06:35.622Z,68.67
2019-02-28T01:09:03.515Z,69.08
2019-02-28T01:11:31.409Z,69.56
2019-02-28T01:14:01.668Z,70.37
2019-02-28T01:16:28.155Z,70.83
2019-02-28T01:18:56.035Z,70.85
2019-02-28T01:21:24.584Z,71.76
2019-02-28T01:23:51.881Z,70.97
2019-02-28T01:26:19.775Z,69.97
2019-02-28T01:28:47.743Z,69.77
2019-02-28T01:31:15.646Z,69.26
2019-02-28T01:33:43.535Z,69.73
2019-02-28T01:36:12.287Z,70.14
2019-02-28T01:38:40.383Z,71.00
2019-02-28T01:41:10.975Z,70.79
2019-02-28T01:43:36.177Z,70.96
2019-02-28T01:46:04.135Z,70.37
2019-02-28T01:48:31.996Z,70.08
2019-02-28T01:51:03.569Z,69.87
2019-02-28T01:53:36.359Z,68.59
2019-02-28T01:56:04.261Z,67.63
2019-02-28T01:58:34.290Z,66.14
2019-02-28T02:01:02.219Z,66.76
2019-02-28T02:03:34.732Z,66.26
2019-02-28T02:06:02.628Z,65.15
2019-02-28T02:08:30.548Z,65.53
2019-02-28T02:11:03.085Z,65.72
2019-02-28T02:13:36.672Z,65.76
2019-02-28T02:16:00.832Z,65.56
2019-02-28T02:18:28.726Z,65.90
2019-02-28T02:20:57.433Z,66.22
2019-02-28T02:23:24.560Z,67.09
2019-02-28T02:25:52.444Z,67.66
2019-02-28T02:28:20.345Z,67.56
2019-02-28T02:30:50.935Z,67.17
2019-02-28T02:33:16.170Z,67.55
2019-02-28T02:35:45.222Z,67.29
2019-02-28T02:38:14.022Z,67.38
2019-02-28T02:40:41.939Z,67.15
2019-02-28T02:43:09.941Z,66.58
2019-02-28T02:45:41.911Z,66.71
2019-02-28T02:48:06.850Z,66.90
2019-02-28T02:50:35.783Z,67.21
2019-02-28T02:53:05.410Z,67.35
2019-02-28T02:55:29.516Z,67.75
2019-02-28T02:57:57.413Z,67.40
2019-02-28T03:00:26.287Z,67.77
2019-02-28T03:02:58.913Z,67.68
2019-02-28T03:05:26.800Z,67.91
2019-02-28T03:07:59.425Z,67.85
2019-02-28T03:10:23.522Z,68.15
2019-02-28T03:12:53.349Z,68.31
2019-02-28T03:15:26.820Z,68.85
2019-02-28T03:17:50.045Z,69.30
2019-02-28T03:20:18.109Z,69.33
2019-02-28T03:22:53.386Z,69.86
2019-02-28T03:25:27.704Z,69.90
2019-02-28T03:27:54.972Z,69.73
2019-02-28T03:30:29.453Z,68.87
2019-02-28T03:32:46.038Z,68.14
2019-02-28T03:35:13.903Z,68.00
2019-02-28T03:37:43.735Z,67.87
2019-02-28T03:40:11.647Z,68.92
2019-02-28T03:42:39.616Z,69.87
2019-02-28T03:45:07.525Z,70.29
2019-02-28T03:47:35.439Z,70.71
2019-02-28T03:50:03.341Z,71.65
2019-02-28T03:52:31.238Z,71.07
2019-02-28T03:55:03.260Z,71.71
2019-02-28T03:57:29.410Z,71.30
2019-02-28T03:59:56.760Z,70.79
2019-02-28T04:02:22.971Z,71.06
2019-02-28T04:04:50.910Z,71.72
2019-02-28T04:07:18.820Z,71.49
2019-02-28T04:09:47.646Z,69.43
2019-02-28T04:12:16.274Z,69.13
2019-02-28T04:14:45.161Z,67.54
2019-02-28T04:17:13.091Z,67.17
2019-02-28T04:19:41.965Z,66.25
2019-02-28T04:22:09.896Z,66.11
2019-02-28T04:24:37.797Z,66.26
2019-02-28T04:27:06.917Z,66.66
2019-02-28T04:29:33.624Z,66.84
2019-02-28T04:32:01.546Z,66.90
2019-02-28T04:34:29.428Z,67.14
2019-02-28T04:36:57.367Z,68.00
2019-02-28T04:39:25.270Z,68.50
2019-02-28T04:41:53.172Z,68.86
2019-02-28T04:44:21.086Z,68.86
2019-02-28T04:46:49.966Z,68.60
2019-02-28T04:49:21.836Z,68.43
2019-02-28T04:51:45.911Z,68.39
2019-02-28T04:54:13.796Z,68.60
2019-02-28T04:56:42.252Z,67.99
2019-02-28T04:59:09.636Z,67.41
2019-02-28T05:01:37.547Z,67.26
2019-02-28T05:04:05.422Z,67.71
2019-02-28T05:06:37.129Z,68.08
2019-02-28T05:09:05.095Z,68.33
2019-02-28T05:11:33.904Z,68.47
2019-02-28T05:14:01.932Z,67.99
2019-02-28T05:16:29.827Z,67.77
2019-02-28T05:19:01.527Z,67.40
2019-02-28T05:21:28.853Z,64.80
2019-02-28T05:23:56.766Z,62.92
2019-02-28T05:26:26.286Z,62.69
2019-02-28T05:28:52.692Z,61.29
2019-02-28T05:31:20.607Z,61.26
2019-02-28T05:33:48.540Z,59.49
2019-02-28T05:36:16.468Z,58.94
2019-02-28T05:38:44.367Z,57.99
2019-02-28T05:41:15.321Z,57.17
2019-02-28T05:43:40.232Z,56.71
2019-02-28T05:46:08.151Z,56.88
2019-02-28T05:48:38.601Z,56.68
2019-02-28T05:51:05.852Z,58.11
2019-02-28T05:53:33.776Z,57.67
2019-02-28T05:56:01.848Z,58.86
2019-02-28T05:58:30.860Z,59.42
2019-02-28T06:01:00.760Z,60.86
2019-02-28T06:03:32.458Z,60.38
2019-02-28T06:06:01.305Z,58.45
2019-02-28T06:08:29.193Z,57.99
2019-02-28T06:11:00.601Z,58.80
2019-02-28T06:13:29.752Z,60.05
2019-02-28T06:15:57.676Z,60.67
2019-02-28T06:18:26.998Z,60.72
2019-02-28T06:20:53.623Z,60.68
2019-02-28T06:23:21.521Z,61.00
2019-02-28T06:25:49.513Z,60.82
2019-02-28T06:28:17.409Z,61.02
2019-02-28T06:30:45.332Z,60.95
2019-02-28T06:33:13.235Z,60.02
2019-02-28T06:35:41.145Z,57.82
2019-02-28T06:38:09.041Z,56.66
2019-02-28T06:40:37.882Z,56.70
2019-02-28T06:43:05.845Z,56.18
2019-02-28T06:45:36.994Z,55.43
2019-02-28T06:48:02.154Z,56.42
2019-02-28T06:50:31.931Z,54.35
2019-02-28T06:52:59.952Z,54.03
2019-02-28T06:55:27.788Z,54.42
2019-02-28T06:57:58.838Z,54.41
2019-02-28T07:00:24.579Z,55.24
2019-02-28T07:02:56.283Z,55.63
2019-02-28T07:05:28.096Z,55.14
2019-02-28T07:07:56.506Z,55.74
2019-02-28T07:10:25.397Z,53.99
2019-02-28T07:12:53.279Z,54.53
2019-02-28T07:15:24.781Z,54.21
2019-02-28T07:17:49.078Z,53.42
2019-02-28T07:20:17.716Z,52.58
2019-02-28T07:22:45.622Z,52.17
2019-02-28T07:25:13.899Z,53.00
2019-02-28T07:27:41.468Z,51.83
2019-02-28T07:30:09.972Z,52.26
2019-02-28T07:32:43.472Z,52.44
2019-02-28T07:35:11.368Z,51.87
2019-02-28T07:37:39.338Z,50.67
2019-02-28T07:40:08.615Z,50.93
2019-02-28T07:42:37.565Z,52.11
2019-02-28T07:45:04.531Z,51.21
2019-02-28T07:47:34.351Z,50.68
2019-02-28T07:50:02.280Z,49.80
2019-02-28T07:52:33.454Z,49.52
2019-02-28T07:54:59.036Z,49.72
2019-02-28T07:57:26.943Z,48.94
2019-02-28T07:59:55.047Z,47.88
2019-02-28T08:02:22.991Z,48.16
2019-02-28T08:04:54.280Z,47.48
2019-02-28T08:07:18.800Z,47.02
2019-02-28T08:09:46.704Z,45.53
2019-02-28T08:12:14.623Z,46.65
2019-02-28T08:14:43.659Z,45.51
2019-02-28T08:17:10.531Z,44.70
2019-02-28T08:19:43.025Z,44.97
2019-02-28T08:22:10.897Z,44.75
2019-02-28T08:24:38.809Z,44.95
2019-02-28T08:27:06.851Z,44.40
2019-02-28T08:29:34.743Z,42.80
2019-02-28T08:32:06.573Z,42.65
2019-02-28T08:34:30.549Z,43.17
2019-02-28T08:36:58.471Z,42.38
2019-02-28T08:39:26.375Z,42.35
2019-02-28T08:42:04.550Z,42.30
2019-02-28T08:44:28.217Z,42.05
2019-02-28T08:46:56.080Z,42.00
2019-02-28T08:49:23.999Z,41.38
2019-02-28T08:51:51.905Z,41.48
2019-02-28T08:54:26.110Z,41.58
2019-02-28T08:56:49.665Z,40.88
2019-02-28T08:59:20.445Z,40.56
2019-02-28T09:01:44.292Z,39.92
2019-02-28T09:04:11.605Z,39.74
2019-02-28T09:06:40.939Z,40.89
2019-02-28T09:09:07.543Z,39.22
2019-02-28T09:11:35.436Z,37.93
2019-02-28T09:14:03.375Z,37.45
2019-02-28T09:16:31.298Z,36.38
2019-02-28T09:19:00.872Z,35.58
2019-02-28T09:21:27.176Z,35.16
2019-02-28T09:23:55.104Z,34.26
2019-02-28T09:26:23.024Z,33.53
2019-02-28T09:28:51.948Z,33.25
2019-02-28T09:31:19.843Z,32.56
2019-02-28T09:33:47.779Z,32.47
2019-02-28T09:36:20.230Z,31.99
2019-02-28T09:38:45.244Z,32.09
2019-02-28T09:41:11.564Z,31.04
2019-02-28T09:43:40.422Z,31.41
2019-02-28T09:46:09.088Z,31.45
2019-02-28T09:48:37.267Z,31.30
2019-02-28T09:51:04.248Z,30.47
2019-02-28T09:53:33.056Z,31.73
2019-02-28T09:56:00.962Z,30.89
2019-02-28T09:58:29.359Z,30.85
2019-02-28T10:00:56.767Z,29.50
2019-02-28T10:03:24.731Z,29.65
2019-02-28T10:05:52.657Z,29.05
2019-02-28T10:08:21.774Z,29.86
2019-02-28T10:10:48.456Z,30.49
2019-02-28T10:13:18.275Z,28.77
2019-02-28T10:15:44.282Z,29.87
2019-02-28T10:18:12.188Z,29.08
2019-02-28T10:20:41.052Z,29.15
2019-02-28T10:23:09.025Z,29.15
2019-02-28T10:25:41.012Z,29.57
2019-02-28T10:28:04.895Z,29.45
2019-02-28T10:30:32.843Z,28.84
2019-02-28T10:33:00.765Z,29.02
2019-02-28T10:35:28.674Z,29.20
2019-02-28T10:37:58.408Z,28.33
2019-02-28T10:40:26.050Z,28.94
2019-02-28T10:42:54.969Z,29.34
2019-02-28T10:45:22.869Z,28.74
2019-02-28T10:47:50.791Z,29.56
2019-02-28T10:50:20.372Z,28.12
2019-02-28T10:52:48.288Z,29.02
2019-02-28T10:55:16.201Z,30.56
2019-02-28T10:57:44.123Z,29.67
2019-02-28T11:00:22.904Z,29.25
2019-02-28T11:02:53.739Z,29.32
2019-02-28T11:05:19.536Z,29.58
2019-02-28T11:07:46.687Z,27.73
2019-02-28T11:10:14.656Z,27.69
2019-02-28T11:12:42.548Z,28.71
2019-02-28T11:15:13.943Z,28.37
2019-02-28T11:17:38.411Z,28.74
2019-02-28T11:20:08.948Z,27.91
2019-02-28T11:22:39.902Z,29.04
2019-02-28T11:25:06.393Z,27.96
2019-02-28T11:27:35.270Z,27.98
2019-02-28T11:30:03.163Z,28.77
2019-02-28T11:32:32.045Z,28.69
2019-02-28T11:34:59.955Z,27.40
2019-02-28T11:37:27.860Z,29.16
2019-02-28T11:39:56.672Z,28.39
2019-02-28T11:42:27.982Z,28.39
2019-02-28T11:44:52.507Z,28.29
2019-02-28T11:47:20.412Z,26.53
2019-02-28T11:49:49.223Z,26.44
2019-02-28T11:52:17.154Z,26.82
2019-02-28T11:54:45.406Z,27.89
2019-02-28T11:57:12.987Z,28.50
2019-02-28T11:59:40.899Z,27.82
2019-02-28T12:02:08.807Z,28.38
2019-02-28T12:04:37.484Z,29.82
2019-02-28T12:07:04.658Z,29.13
2019-02-28T12:09:32.585Z,29.66
2019-02-28T12:12:00.503Z,29.59
2019-02-28T12:14:30.098Z,29.07
2019-02-28T12:16:57.325Z,30.23
2019-02-28T12:19:28.413Z,29.89
2019-02-28T12:21:55.163Z,29.98
2019-02-28T12:24:29.363Z,29.98
2019-02-28T12:26:55.888Z,29.95
2019-02-28T12:29:24.861Z,30.27
2019-02-28T12:31:52.761Z,29.84
2019-02-28T12:34:20.656Z,30.17
2019-02-28T12:36:49.430Z,30.21
2019-02-28T12:39:16.498Z,30.28
2019-02-28T12:41:44.419Z,29.79
2019-02-28T12:44:15.155Z,29.07
2019-02-28T12:46:40.251Z,29.57
2019-02-28T12:49:08.228Z,29.08
2019-02-28T12:51:36.446Z,28.94
2019-02-28T12:54:04.064Z,29.09
2019-02-28T12:56:31.956Z,28.95
2019-02-28T12:58:59.868Z,28.94
2019-02-28T13:01:27.784Z,28.54
2019-02-28T13:04:00.187Z,28.33
2019-02-28T13:06:24.583Z,28.88
2019-02-28T13:08:53.435Z,29.49
2019-02-28T13:11:19.488Z,29.28
2019-02-28T13:14:00.031Z,28.59
2019-02-28T13:16:25.068Z,28.86
2019-02-28T13:18:53.071Z,28.80
2019-02-28T13:21:20.989Z,28.93
2019-02-28T13:23:48.893Z,29.42
2019-02-28T13:26:16.813Z,28.77
2019-02-28T13:28:44.737Z,28.03
2019-02-28T13:31:12.630Z,28.70
2019-02-28T13:33:40.531Z,28.14
2019-02-28T13:36:08.472Z,27.39
2019-02-28T13:38:36.401Z,27.65
2019-02-28T13:41:04.309Z,27.61
2019-02-28T13:43:32.291Z,27.29
2019-02-28T13:46:00.215Z,26.95
2019-02-28T13:48:33.121Z,27.77
2019-02-28T13:50:59.365Z,28.45
2019-02-28T13:53:27.096Z,28.27
2019-02-28T13:55:52.692Z,28.65
2019-02-28T13:58:21.629Z,28.15
2019-02-28T14:00:47.854Z,28.48
2019-02-28T14:03:17.046Z,28.04
2019-02-28T14:05:47.144Z,29.17
2019-02-28T14:08:15.956Z,29.03
2019-02-28T14:10:43.869Z,29.12
2019-02-28T14:13:11.773Z,29.67
2019-02-28T14:15:52.368Z,30.09
2019-02-28T14:18:16.318Z,30.30
2019-02-28T14:20:44.230Z,29.59
2019-02-28T14:23:12.139Z,30.35
2019-02-28T14:25:41.206Z,30.13
2019-02-28T14:28:11.334Z,30.30
2019-02-28T14:30:39.285Z,29.99
2019-02-28T14:33:07.184Z,29.63
2019-02-28T14:35:38.467Z,30.48
2019-02-28T14:38:04.011Z,30.10
2019-02-28T14:40:32.872Z,29.99
2019-02-28T14:43:00.793Z,30.29
2019-02-28T14:45:29.455Z,30.31
2019-02-28T14:48:00.777Z,31.10
2019-02-28T14:50:26.236Z,31.39
2019-02-28T14:52:54.978Z,31.13
2019-02-28T14:55:22.974Z,31.68
2019-02-28T14:57:51.904Z,32.16
2019-02-28T15:00:20.527Z,33.06
2019-02-28T15:02:48.464Z,34.60
2019-02-28T15:05:16.715Z,33.55
2019-02-28T15:07:47.831Z,32.51
2019-02-28T15:10:26.076Z,31.89
2019-02-28T15:12:55.282Z,32.04
2019-02-28T15:15:21.941Z,31.97
2019-02-28T15:17:55.429Z,32.43
2019-02-28T15:20:24.403Z,32.61
2019-02-28T15:22:55.538Z,32.78
2019-02-28T15:25:21.801Z,33.05
2019-02-28T15:27:49.762Z,33.73
2019-02-28T15:30:20.205Z,33.45
2019-02-28T15:32:50.689Z,33.64
2019-02-28T15:35:16.768Z,33.59
2019-02-28T15:37:44.687Z,33.84
2019-02-28T15:40:16.315Z,33.76
2019-02-28T15:42:42.899Z,33.44
2019-02-28T15:45:10.407Z,33.71
2019-02-28T15:47:38.296Z,34.09
2019-02-28T15:50:06.979Z,34.78
2019-02-28T15:52:36.695Z,35.36
2019-02-28T15:55:03.692Z,35.60
2019-02-28T15:57:32.509Z,34.96
2019-02-28T16:00:02.331Z,35.26
2019-02-28T16:02:30.259Z,35.85
2019-02-28T16:05:05.195Z,34.77
2019-02-28T16:07:32.380Z,35.78
2019-02-28T16:09:57.057Z,36.07
2019-02-28T16:12:23.115Z,35.88
2019-02-28T16:14:52.028Z,36.02
2019-02-28T16:17:19.972Z,35.98
2019-02-28T16:19:48.030Z,36.14
2019-02-28T16:22:18.117Z,36.39
2019-02-28T16:24:43.849Z,37.33
2019-02-28T16:27:12.651Z,37.13
2019-02-28T16:29:41.479Z,38.00
2019-02-28T16:32:09.401Z,37.91
2019-02-28T16:34:38.734Z,38.81
2019-02-28T16:37:05.219Z,38.63
2019-02-28T16:39:39.166Z,38.91
2019-02-28T16:42:08.282Z,39.65
2019-02-28T16:44:36.064Z,39.55
2019-02-28T16:47:04.067Z,39.99
2019-02-28T16:49:33.977Z,40.50
2019-02-28T16:52:02.463Z,40.12
2019-02-28T16:54:30.777Z,40.28
2019-02-28T16:56:58.677Z,40.23
2019-02-28T16:59:28.394Z,40.88
2019-02-28T17:01:55.606Z,41.86
2019-02-28T17:04:22.534Z,42.19
2019-02-28T17:06:56.116Z,41.81
2019-02-28T17:09:26.548Z,41.94
2019-02-28T17:11:57.232Z,42.08
2019-02-28T17:14:25.148Z,42.53
2019-02-28T17:16:59.640Z,42.42
2019-02-28T17:19:28.529Z,42.63
2019-02-28T17:21:56.392Z,43.39
2019-02-28T17:24:24.292Z,43.11
2019-02-28T17:26:57.617Z,43.19
2019-02-28T17:29:26.129Z,43.79
2019-02-28T17:31:53.453Z,44.06
2019-02-28T17:34:24.522Z,44.16
2019-02-28T17:36:49.280Z,44.76
2019-02-28T17:39:17.188Z,44.95
2019-02-28T17:41:45.113Z,45.09
2019-02-28T17:44:20.719Z,44.67
2019-02-28T17:46:48.646Z,45.41
2019-02-28T17:52:33.658Z,46.27
2019-02-28T17:58:08.020Z,46.50
2019-02-28T18:03:36.567Z,47.08
2019-02-28T18:06:17.972Z,47.26
2019-02-28T18:11:42.289Z,47.74
2019-02-28T18:23:12.191Z,49.21
2019-02-28T18:28:54.838Z,49.76
2019-02-28T18:31:22.974Z,50.16
2019-02-28T18:33:52.273Z,50.37
2019-02-28T18:36:18.657Z,50.82
2019-02-28T18:38:58.335Z,51.00
2019-02-28T18:41:31.756Z,51.12
2019-02-28T18:44:00.053Z,51.31
2019-02-28T18:46:29.515Z,51.00
2019-02-28T18:48:55.755Z,51.37
2019-02-28T18:51:23.487Z,51.33
2019-02-28T18:53:51.540Z,51.80
2019-02-28T18:56:19.440Z,51.99
2019-02-28T18:58:47.354Z,51.73
2019-02-28T19:01:15.361Z,51.91
2019-02-28T19:03:45.186Z,52.08
2019-02-28T19:06:13.178Z,52.18
2019-02-28T19:08:41.092Z,53.21
2019-02-28T19:11:09.892Z,53.29
2019-02-28T19:13:37.820Z,53.66
2019-02-28T19:16:05.856Z,53.87
2019-02-28T19:18:33.780Z,53.98
2019-02-28T19:21:01.707Z,53.83
2019-02-28T19:23:41.248Z,54.12
2019-02-28T19:26:09.129Z,54.00
2019-02-28T19:28:37.062Z,54.83
2019-02-28T19:31:06.931Z,54.82
2019-02-28T19:33:34.855Z,54.93
2019-02-28T19:36:02.778Z,54.38
2019-02-28T19:38:33.781Z,54.31
2019-02-28T19:41:01.689Z,54.65
2019-02-28T19:43:29.604Z,54.63
2019-02-28T19:45:57.551Z,54.44
2019-02-28T19:48:25.491Z,54.52
2019-02-28T19:50:53.425Z,54.16
2019-02-28T19:53:21.344Z,54.23
2019-02-28T19:55:56.804Z,54.19
2019-02-28T19:58:23.618Z,54.09
2019-02-28T20:00:52.081Z,53.86
2019-02-28T20:03:19.435Z,53.90
2019-02-28T20:05:47.383Z,54.62
2019-02-28T20:08:15.341Z,55.28
2019-02-28T20:10:43.239Z,55.48
2019-02-28T20:13:11.184Z,55.03
2019-02-28T20:15:40.825Z,55.33
2019-02-28T20:18:09.694Z,55.42
2019-02-28T20:20:37.591Z,56.28
2019-02-28T20:23:05.500Z,56.69
2019-02-28T20:25:37.356Z,55.72
2019-02-28T20:28:05.264Z,56.27
2019-02-28T20:30:33.190Z,56.79
2019-02-28T20:33:01.114Z,57.39
2019-02-28T20:35:29.022Z,58.14
2019-02-28T20:37:57.021Z,58.00
2019-02-28T20:40:28.431Z,57.29
2019-02-28T20:42:56.349Z,58.07
2019-02-28T20:45:24.329Z,58.23
2019-02-28T20:47:57.587Z,58.37
2019-02-28T20:50:26.069Z,57.48
2019-02-28T20:52:53.954Z,57.11
2019-02-28T20:55:21.894Z,57.91
2019-02-28T20:57:54.571Z,58.91
2019-02-28T21:00:25.509Z,59.15
2019-02-28T21:02:53.468Z,58.51
2019-02-28T21:05:21.373Z,59.00
2019-02-28T21:07:52.497Z,58.98
2019-02-28T21:10:20.485Z,58.55
2019-02-28T21:12:54.846Z,58.93
2019-02-28T21:15:25.011Z,59.06
2019-02-28T21:17:53.398Z,58.37
2019-02-28T21:20:21.545Z,57.92
2019-02-28T21:22:55.592Z,57.62
2019-02-28T21:25:24.683Z,57.78
2019-02-28T21:34:51.858Z,57.61
2019-02-28T21:37:23.503Z,58.18
2019-02-28T21:39:52.494Z,58.43
2019-02-28T21:42:20.428Z,58.55
2019-02-28T21:44:48.326Z,58.21
2019-02-28T21:47:16.368Z,58.46
2019-02-28T21:49:45.204Z,58.35
2019-02-28T21:52:13.120Z,58.66
2019-02-28T21:54:44.312Z,59.05
2019-02-28T21:57:12.315Z,59.12
2019-02-28T21:59:46.014Z,59.76
2019-02-28T22:02:13.916Z,59.84
2019-02-28T22:04:41.850Z,60.17
2019-02-28T22:07:09.764Z,59.83
2019-02-28T22:09:38.619Z,60.98
2019-02-28T22:12:08.427Z,61.63
2019-02-28T22:14:36.396Z,63.17
2019-02-28T22:17:04.319Z,64.40
2019-02-28T22:19:32.184Z,64.56
2019-02-28T22:22:01.996Z,64.94
2019-02-28T22:24:33.741Z,65.84
2019-02-28T22:27:01.674Z,66.10
2019-02-28T22:29:42.193Z,66.46
2019-02-28T22:32:10.102Z,66.96
2019-02-28T22:34:38.004Z,67.77
2019-02-28T22:37:05.936Z,68.01
2019-02-28T22:39:34.739Z,68.45
2019-02-28T22:42:02.640Z,68.96
2019-02-28T22:44:30.605Z,69.44
2019-02-28T22:46:58.513Z,69.69
2019-02-28T22:49:26.408Z,70.08
2019-02-28T22:51:54.317Z,70.60
2019-02-28T22:54:22.230Z,70.00
2019-02-28T22:56:50.126Z,71.18
2019-02-28T22:59:18.104Z,69.99
2019-02-28T23:01:47.996Z,70.88
2019-02-28T23:04:15.932Z,70.77
2019-02-28T23:06:50.338Z,71.36
2019-02-28T23:09:18.253Z,70.89
2019-02-28T23:11:46.192Z,70.21
2019-02-28T23:14:14.077Z,70.28
2019-02-28T23:16:45.321Z,69.72
2019-02-28T23:19:13.209Z,70.26
2019-02-28T23:21:41.125Z,70.31
2019-02-28T23:24:09.027Z,70.10
2019-02-28T23:26:53.551Z,70.58
2019-02-28T23:29:21.449Z,70.16
2019-02-28T23:32:09.797Z,69.15
2019-02-28T23:34:39.596Z,68.21
2019-02-28T23:37:07.524Z,68.37
2019-02-28T23:39:35.432Z,67.74
2019-02-28T23:42:03.355Z,68.01
2019-02-28T23:44:33.404Z,68.43
2019-02-28T23:47:01.292Z,68.84
2019-02-28T23:49:29.216Z,68.70
2019-02-28T23:51:57.122Z,68.88
2019-02-28T23:54:25.062Z,68.87
2019-02-28T23:56:52.955Z,68.85
2019-02-28T23:59:20.860Z,69.35
